createdAt,value
2022-09-01T00:24:45.362Z,2.10
2022-09-01T00:43:27.593Z,2.40
2022-09-01T01:02:06.844Z,2.30
2022-09-01T01:20:47.549Z,2.50
2022-09-01T01:39:29.300Z,3.40
2022-09-01T01:58:10.766Z,4.00
2022-09-01T02:16:53.290Z,2.80
2022-09-01T02:35:31.289Z,3.50
2022-09-01T02:54:11.662Z,4.60
2022-09-01T03:12:52.913Z,4.00
2022-09-01T03:31:32.255Z,5.30
2022-09-01T03:50:12.332Z,5.90
2022-09-01T04:27:35.265Z,7.60
2022-09-01T04:46:16.646Z,6.80
2022-09-01T05:04:58.284Z,4.60
2022-09-01T05:23:38.392Z,5.90
2022-09-01T05:42:22.209Z,5.50
2022-09-01T06:00:59.647Z,5.60
2022-09-01T06:19:40.566Z,3.20
2022-09-01T06:38:20.976Z,6.20
2022-09-01T07:34:46.167Z,4.40
2022-09-01T07:53:09.788Z,3.20
2022-09-01T08:12:01.471Z,3.80
2022-09-01T08:49:29.855Z,3.20
2022-09-01T09:26:44.710Z,3.20
2022-09-01T09:45:23.554Z,2.00
2022-09-01T10:04:11.388Z,1.30
2022-09-01T10:22:56.066Z,1.10
2022-09-01T10:41:35.674Z,2.00
2022-09-01T11:19:02.464Z,1.00
2022-09-01T11:38:01.780Z,2.90
2022-09-01T11:56:31.401Z,1.30
2022-09-01T12:15:06.388Z,1.60
2022-09-01T13:10:52.023Z,1.50
2022-09-01T13:29:32.172Z,1.50
2022-09-01T13:48:17.432Z,2.40
2022-09-01T14:06:49.437Z,1.70
2022-09-01T14:25:29.856Z,1.60
2022-09-01T14:44:06.827Z,1.60
2022-09-01T15:02:43.801Z,2.20
2022-09-01T15:21:19.919Z,1.20
2022-09-01T15:39:58.604Z,1.70
2022-09-01T15:58:50.901Z,1.90
2022-09-01T16:17:18.732Z,1.70
2022-09-01T16:35:56.969Z,2.40
2022-09-01T17:13:10.269Z,2.30
2022-09-01T17:50:26.924Z,2.10
2022-09-01T18:09:04.235Z,3.30
2022-09-01T18:27:41.705Z,2.40
2022-09-01T18:46:18.725Z,3.30
2022-09-01T19:04:57.688Z,4.20
2022-09-01T19:23:36.478Z,3.30
2022-09-01T19:42:14.762Z,4.90
2022-09-01T20:00:54.187Z,3.70
2022-09-01T21:33:58.470Z,3.50
2022-09-01T21:52:36.735Z,3.80
2022-09-01T22:11:15.021Z,4.30
2022-09-01T22:29:54.916Z,3.40
2022-09-01T22:48:34.458Z,3.40
2022-09-01T23:07:14.104Z,5.80
2022-09-01T23:25:53.599Z,4.60
2022-09-01T23:44:30.881Z,3.20
